Time;durP1;ratioP1;P1;durP2;ratioP2;P2;SDS_P1;SDS_P2;PMS_P1;PMS_P2;Temp;Humidity;BMP_temperature;BMP_pressure;BME280_temperature;BME280_humidity;BME280_pressure;Samples;Min_cycle;Max_cycle;Signal;HPM_P1;HPM_P2
2022/10/21 00:02:23;;;;;;;;;;;205.70;2252.80;;;;;;5016705;28;20048;-84
2022/10/21 00:04:48;;;;;;;19.38;9.82;;;205.60;2252.80;;;;;;5018980;28;19955;-86
2022/10/21 00:07:14;;;;;;;;;;;205.70;2252.80;;;;;;5013097;28;20030;-85
2022/10/21 00:09:40;;;;;;;17.50;10.77;;;205.70;2252.80;;;;;;5039069;28;19954;-85
2022/10/21 00:12:06;;;;;;;17.90;10.15;;;205.70;2252.80;;;;;;5038668;28;20068;-85
2022/10/21 00:14:32;;;;;;;21.83;9.90;;;205.70;2252.80;;;;;;5038255;28;20021;-84
2022/10/21 00:16:58;;;;;;;;;;;205.60;2252.80;;;;;;5039233;28;20550;-86
2022/10/21 00:19:24;;;;;;;17.25;8.98;;;230.40;2252.80;;;;;;5038754;28;19904;-84
2022/10/21 00:21:49;;;;;;;;;;;205.60;2252.80;;;;;;5056700;28;20032;-84
2022/10/21 00:24:15;;;;;;;18.42;10.27;;;205.60;2252.80;;;;;;5056530;28;20328;-86
2022/10/21 00:26:40;;;;;;;;;;;205.40;2252.80;;;;;;5038588;28;20014;-85
2022/10/21 00:29:06;;;;;;;15.65;8.82;;;205.40;2252.80;;;;;;5038570;28;19911;-85
2022/10/21 00:31:33;;;;;;;;;;;205.30;2252.80;;;;;;5039030;28;20071;-85
2022/10/21 00:33:59;;;;;;;17.10;8.18;;;205.10;2252.80;;;;;;5038827;28;19991;-85
2022/10/21 00:36:25;;;;;;;;;;;205.00;2252.80;;;;;;5038811;28;20079;-86
2022/10/21 00:38:50;;;;;;;15.93;9.15;;;204.90;2252.80;;;;;;5038754;28;19912;-85
2022/10/21 00:41:17;;;;;;;;;;;205.00;2252.80;;;;;;5038614;28;20025;-85
2022/10/21 00:44:04;;;;;;;23.80;10.97;;;205.00;2252.80;;;;;;5047141;28;19912;-85
2022/10/21 00:46:48;;;;;;;20.95;10.23;;;205.00;2252.80;;;;;;5035571;28;20282;-86
2022/10/21 00:49:18;;;;;;;22.80;10.65;;;204.90;2252.80;;;;;;5055999;28;20467;-85
2022/10/21 00:51:46;;;;;;;20.63;11.00;;;204.80;2252.80;;;;;;5037970;28;20033;-85
2022/10/21 00:54:13;;;;;;;23.27;12.75;;;204.80;2252.80;;;;;;5024338;28;20024;-85
2022/10/21 00:56:40;;;;;;;22.27;11.10;;;204.80;2252.80;;;;;;5045684;28;20043;-85
2022/10/21 00:59:06;;;;;;;26.77;10.00;;;180.00;2252.80;;;;;;5034295;28;20071;-85
2022/10/21 01:01:32;;;;;;;29.80;11.30;;;179.80;2252.80;;;;;;5037836;28;20434;-85
2022/10/21 01:04:00;;;;;;;24.80;12.43;;;179.80;2252.80;;;;;;5023136;28;20029;-86
2022/10/21 01:06:26;;;;;;;20.65;10.68;;;179.80;2252.80;;;;;;5025065;28;20033;-85
2022/10/21 01:08:55;;;;;;;27.13;11.68;;;179.80;2252.80;;;;;;5036972;28;20395;-86
2022/10/21 01:11:23;;;;;;;22.20;11.05;;;179.70;2252.80;;;;;;5037719;28;20025;-85
2022/10/21 01:14:14;;;;;;;18.63;11.48;;;179.70;2252.80;;;;;;5037406;28;20021;-85
2022/10/21 01:16:55;;;;;;;21.48;10.27;;;179.60;2252.80;;;;;;4939514;29;20039;-85
2022/10/21 01:19:58;;;;;;;14.82;9.32;;;179.50;2252.80;;;;;;4955669;28;20054;-85
2022/10/21 01:22:48;;;;;;;15.93;9.75;;;179.50;2252.80;;;;;;4898308;29;20044;-85
2022/10/21 01:25:40;;;;;;;17.27;9.18;;;179.30;2252.80;;;;;;4879905;29;20425;-85
2022/10/21 01:28:09;;;;;;;19.27;9.63;;;179.40;2252.80;;;;;;4880058;29;20092;-84
2022/10/21 01:30:41;;;;;;;22.92;10.25;;;179.30;2252.80;;;;;;4882675;29;20037;-84
2022/10/21 01:33:31;;;;;;;17.83;9.70;;;179.30;2252.80;;;;;;4882714;29;20123;-85
2022/10/21 01:36:06;;;;;;;22.80;9.18;;;179.20;2252.80;;;;;;4882487;29;20033;-85
2022/10/21 01:38:44;;;;;;;21.88;9.13;;;179.30;2252.80;;;;;;4885164;29;20035;-85
2022/10/21 01:41:26;;;;;;;31.65;11.43;;;154.50;2252.80;;;;;;4882846;29;20535;-85
2022/10/21 01:43:56;;;;;;;20.23;10.98;;;154.30;2252.80;;;;;;4867558;29;20032;-85
2022/10/21 01:46:26;;;;;;;21.75;10.90;;;154.30;2252.80;;;;;;4875895;29;20079;-88
2022/10/21 01:48:56;;;;;;;23.33;10.68;;;154.50;2252.80;;;;;;4882543;29;20032;-88
2022/10/21 01:51:25;;;;;;;20.27;9.73;;;154.30;2252.80;;;;;;4882406;29;20466;-88
2022/10/21 01:54:05;;;;;;;25.80;11.45;;;154.40;2252.80;;;;;;4901358;29;20079;-85
2022/10/21 01:56:32;;;;;;;18.25;10.73;;;154.50;2252.80;;;;;;4927111;29;20024;-86
2022/10/21 01:58:59;;;;;;;21.83;11.73;;;179.20;2252.80;;;;;;5000263;28;20510;-85
2022/10/21 02:01:25;;;;;;;22.73;10.27;;;179.40;2252.80;;;;;;5017412;28;20044;-85
2022/10/21 02:03:57;;;;;;;18.23;10.57;;;179.70;2252.80;;;;;;5029972;28;20128;-85
2022/10/21 02:06:24;;;;;;;17.15;9.07;;;179.50;2252.80;;;;;;5003980;28;20033;-86
2022/10/21 02:08:50;;;;;;;15.48;9.35;;;179.40;2252.80;;;;;;5028933;28;20063;-85
2022/10/21 02:11:17;;;;;;;24.95;10.88;;;179.40;2252.80;;;;;;5037082;28;20033;-85
2022/10/21 02:13:47;;;;;;;22.73;10.00;;;179.30;2252.80;;;;;;5036582;28;20474;-85
2022/10/21 02:16:17;;;;;;;14.73;8.82;;;179.30;2252.80;;;;;;5036263;28;20029;-85
2022/10/21 02:18:43;;;;;;;14.65;9.45;;;154.50;2252.80;;;;;;5036524;28;20036;-85
2022/10/21 02:21:11;;;;;;;;;;;179.20;2252.80;;;;;;5021906;28;20021;-84
2022/10/21 02:23:53;;;;;;;16.15;9.70;;;179.40;2252.80;;;;;;5036138;28;19911;-85
2022/10/21 02:26:21;;;;;;;15.30;8.70;;;179.40;2252.80;;;;;;5022563;28;20075;-85
2022/10/21 02:28:48;;;;;;;16.67;9.35;;;179.40;2252.80;;;;;;5026482;28;20433;-85
2022/10/21 02:31:43;;;;;;;17.60;9.90;;;179.50;2252.80;;;;;;5031204;28;20041;-86
2022/10/21 02:34:30;;;;;;;16.95;9.55;;;179.60;2252.80;;;;;;5035865;28;20043;-85
2022/10/21 02:37:27;;;;;;;16.30;9.15;;;179.50;2252.80;;;;;;5008408;28;20041;-85
2022/10/21 02:40:00;;;;;;;14.65;8.73;;;179.40;2252.80;;;;;;5036270;28;20025;-85
2022/10/21 02:42:34;;;;;;;17.75;9.40;;;179.40;2252.80;;;;;;5036223;28;20032;-85
2022/10/21 02:45:01;;;;;;;18.42;9.52;;;179.30;2252.80;;;;;;5019344;28;20026;-85
2022/10/21 02:47:28;;;;;;;16.70;9.75;;;179.40;2252.80;;;;;;5024385;28;20037;-85
2022/10/21 02:49:54;;;;;;;19.58;9.93;;;179.30;2252.80;;;;;;5035647;28;20033;-85
2022/10/21 02:52:20;;;;;;;14.68;8.63;;;179.70;2252.80;;;;;;5033136;28;20044;-85
2022/10/21 02:54:45;;;;;;;;;;;179.30;2252.80;;;;;;5025302;28;20017;-85
2022/10/21 02:57:11;;;;;;;15.60;8.77;;;179.40;2252.80;;;;;;5035274;28;19916;-85
2022/10/21 02:59:37;;;;;;;;;;;179.30;2252.80;;;;;;5036683;28;20402;-85
2022/10/21 03:02:03;;;;;;;15.23;8.20;;;179.30;2252.80;;;;;;5035571;28;19959;-85
2022/10/21 03:04:28;;;;;;;;;;;179.30;2252.80;;;;;;5035967;28;20017;-85
2022/10/21 03:06:54;;;;;;;18.52;7.55;;;179.20;2252.80;;;;;;5035536;28;20359;-85
2022/10/21 03:09:20;;;;;;;;;;;179.20;2252.80;;;;;;5018981;28;20030;-85
2022/10/21 03:11:46;;;;;;;13.35;6.75;;;154.40;2252.80;;;;;;5023572;28;20324;-84
2022/10/21 03:14:11;;;;;;;;;;;154.30;2252.80;;;;;;5035271;28;20115;-85
2022/10/21 03:16:37;;;;;;;12.75;6.93;;;154.20;2252.80;;;;;;5022139;28;19913;-85
2022/10/21 03:19:02;;;;;;;;;;;154.30;2252.80;;;;;;5053680;28;20033;-85
2022/10/21 03:21:28;;;;;;;18.08;8.23;;;154.20;2252.80;;;;;;5035206;28;19905;-85
2022/10/21 03:23:54;;;;;;;;;;;154.00;2252.80;;;;;;5035697;28;20028;-85
2022/10/21 03:26:20;;;;;;;15.85;6.72;;;154.10;2252.80;;;;;;5053011;28;20405;-85
2022/10/21 03:28:46;;;;;;;16.65;8.80;;;154.00;2252.80;;;;;;5035674;28;20040;-85
2022/10/21 03:31:11;;;;;;;;;;;154.10;2252.80;;;;;;5052844;28;20562;-84
2022/10/21 03:33:37;;;;;;;12.18;7.38;;;154.10;2252.80;;;;;;5035380;28;19905;-84
2022/10/21 03:36:03;;;;;;;;;;;154.00;2252.80;;;;;;5035671;28;20115;-85
2022/10/21 03:38:28;;;;;;;19.30;7.65;;;153.90;2252.80;;;;;;5007084;28;19912;-85
2022/10/21 03:40:54;;;;;;;;;;;153.80;2252.80;;;;;;5035541;28;20021;-85
2022/10/21 03:43:20;;;;;;;19.65;7.88;;;154.10;2252.80;;;;;;5035071;28;19912;-84
2022/10/21 03:45:46;;;;;;;;;;;153.90;2252.80;;;;;;5035152;28;20045;-84
2022/10/21 03:48:12;;;;;;;14.63;7.00;;;153.80;2252.80;;;;;;5052730;28;19911;-84
2022/10/21 03:50:38;;;;;;;;;;;153.80;2252.80;;;;;;5028725;28;20026;-85
2022/10/21 03:53:04;;;;;;;13.07;8.10;;;153.60;2252.80;;;;;;5048903;28;19912;-84
2022/10/21 03:55:30;;;;;;;13.80;6.97;;;153.60;2252.80;;;;;;5030214;28;20407;-85
2022/10/21 03:57:55;;;;;;;;;;;153.70;2252.80;;;;;;5035717;28;20032;-85
2022/10/21 04:00:22;;;;;;;14.98;7.10;;;153.80;2252.80;;;;;;5034724;28;19905;-84
2022/10/21 04:02:48;;;;;;;19.10;7.60;;;153.60;2252.80;;;;;;5035081;28;20534;-85
2022/10/21 04:05:14;;;;;;;11.55;6.40;;;153.60;2252.80;;;;;;5035022;28;20032;-85
2022/10/21 04:07:40;;;;;;;17.60;7.72;;;128.90;2252.80;;;;;;5021038;28;20151;-85
2022/10/21 04:10:06;;;;;;;;;;;153.60;2252.80;;;;;;5035398;28;20048;-85
2022/10/21 04:12:32;;;;;;;15.80;7.80;;;153.60;2252.80;;;;;;5035225;28;19920;-85
2022/10/21 04:14:57;;;;;;;;;;;153.70;2252.80;;;;;;5035134;28;20433;-84
2022/10/21 04:17:23;;;;;;;15.80;6.65;;;128.70;2252.80;;;;;;5035151;28;19905;-85
2022/10/21 04:19:49;;;;;;;;;;;128.50;2252.80;;;;;;5035675;28;20055;-84
2022/10/21 04:22:14;;;;;;;13.50;6.93;;;128.40;2252.80;;;;;;5052643;28;19972;-84
2022/10/21 04:24:40;;;;;;;;;;;128.40;2252.80;;;;;;5018515;28;20025;-85
2022/10/21 04:27:06;;;;;;;12.50;6.72;;;128.50;2252.80;;;;;;5014892;28;19905;-84
2022/10/21 04:29:31;;;;;;;;;;;128.40;2252.80;;;;;;5030216;28;20093;-84
2022/10/21 04:31:57;;;;;;;14.30;7.32;;;128.60;2252.80;;;;;;5033990;28;20293;-84
2022/10/21 04:34:22;;;;;;;;;;;128.70;2252.80;;;;;;5035469;28;20032;-84
2022/10/21 04:36:48;;;;;;;17.77;6.45;;;128.70;2252.80;;;;;;5034680;28;19984;-85
2022/10/21 04:39:14;;;;;;;;;;;128.70;2252.80;;;;;;5053037;28;20029;-84
2022/10/21 04:41:39;;;;;;;14.00;5.93;;;128.60;2252.80;;;;;;5034676;28;20384;-85
2022/10/21 04:44:06;;;;;;;;;;;128.60;2252.80;;;;;;5054807;28;20086;-84
2022/10/21 04:46:31;;;;;;;13.77;6.63;;;128.60;2252.80;;;;;;5041551;28;19921;-85
2022/10/21 04:48:57;;;;;;;;;;;128.50;2252.80;;;;;;5038505;28;20033;-84
2022/10/21 04:51:23;;;;;;;12.45;6.85;;;128.60;2252.80;;;;;;5025042;28;20004;-85
2022/10/21 04:53:49;;;;;;;;;;;128.50;2252.80;;;;;;5022685;28;20467;-85
2022/10/21 04:56:14;;;;;;;17.98;7.38;;;128.50;2252.80;;;;;;5018183;28;19909;-84
2022/10/21 04:58:40;;;;;;;;;;;128.50;2252.80;;;;;;5018493;28;20033;-85
2022/10/21 05:01:06;;;;;;;14.52;7.47;;;128.60;2252.80;;;;;;5023295;28;19909;-85
2022/10/21 05:03:31;;;;;;;;;;;128.70;2252.80;;;;;;5038515;28;20471;-84
2022/10/21 05:05:57;;;;;;;26.35;11.18;;;128.80;2252.80;;;;;;5035160;28;19916;-84
2022/10/21 05:08:22;;;;;;;;;;;128.60;2252.80;;;;;;5018489;28;20033;-84
2022/10/21 05:10:48;;;;;;;23.80;10.43;;;128.70;2252.80;;;;;;5018935;28;20274;-85
2022/10/21 05:13:14;;;;;;;;;;;128.80;2252.80;;;;;;5038068;28;20506;-85
2022/10/21 05:15:40;;;;;;;18.13;9.32;;;128.90;2252.80;;;;;;5037718;28;19912;-83
2022/10/21 05:18:05;;;;;;;;;;;153.60;2252.80;;;;;;5024212;28;20497;-86
2022/10/21 05:20:31;;;;;;;26.50;10.00;;;153.60;2252.80;;;;;;5026409;28;19960;-83
2022/10/21 05:22:56;;;;;;;;;;;153.70;2252.80;;;;;;5031101;28;20030;-81
2022/10/21 05:25:22;;;;;;;19.42;9.70;;;153.80;2252.80;;;;;;5023150;28;19905;-82
2022/10/21 05:27:48;;;;;;;;;;;153.80;2252.80;;;;;;5005577;28;20022;-83
2022/10/21 05:30:14;;;;;;;34.13;17.73;;;154.00;2252.80;;;;;;5008593;28;19918;-85
2022/10/21 05:32:40;;;;;;;;;;;154.00;2252.80;;;;;;5005699;28;20034;-84
2022/10/21 05:35:06;;;;;;;40.03;24.30;;;154.20;2252.80;;;;;;5009632;28;19972;-82
2022/10/21 05:37:32;;;;;;;49.03;24.35;;;154.40;2252.80;;;;;;5000869;28;20072;-81
2022/10/21 05:39:57;;;;;;;;;;;179.20;2252.80;;;;;;5011652;28;20033;-81
2022/10/21 05:42:23;;;;;;;45.05;27.20;;;179.30;2252.80;;;;;;5006631;28;19928;-82
2022/10/21 05:44:49;;;;;;;;;;;179.50;2252.80;;;;;;5005829;28;20112;-81
2022/10/21 05:47:14;;;;;;;46.63;26.45;;;179.60;2252.80;;;;;;5002235;28;20362;-78
2022/10/21 05:49:40;;;;;;;;;;;179.70;2252.80;;;;;;5008681;28;20033;-81
2022/10/21 05:52:06;;;;;;;42.13;20.85;;;179.90;2252.80;;;;;;5000690;28;19913;-80
2022/10/21 05:54:31;;;;;;;;;;;180.00;2252.80;;;;;;5001053;28;20045;-78
2022/10/21 05:56:57;;;;;;;29.45;18.00;;;180.00;2252.80;;;;;;5003552;28;20309;-82
2022/10/21 05:59:24;;;;;;;;;;;180.10;2252.80;;;;;;5019410;28;20021;-77
2022/10/21 06:01:50;;;;;;;29.55;15.23;;;204.80;2252.80;;;;;;5004133;28;19995;-79
2022/10/21 06:04:16;;;;;;;;;;;204.90;2252.80;;;;;;5014382;28;20033;-81
2022/10/21 06:06:41;;;;;;;34.80;21.63;;;204.90;2252.80;;;;;;5036480;28;19909;-79
2022/10/21 06:09:08;;;;;;;;;;;205.00;2252.80;;;;;;5024227;28;20044;-82
2022/10/21 06:11:34;;;;;;;38.53;25.88;;;205.10;2252.80;;;;;;5019649;28;20011;-83
2022/10/21 06:13:59;;;;;;;;;;;205.20;2252.80;;;;;;5036245;28;20057;-81
2022/10/21 06:16:25;;;;;;;45.08;26.63;;;205.20;2252.80;;;;;;5039766;28;19913;-84
2022/10/21 06:18:51;;;;;;;;;;;205.30;2252.80;;;;;;5036355;28;20028;-84
2022/10/21 06:21:16;;;;;;;38.55;24.48;;;205.40;2252.80;;;;;;5019225;28;20414;-77
2022/10/21 06:23:42;;;;;;;;;;;205.50;2252.80;;;;;;5028157;28;20022;-83
2022/10/21 06:26:13;;;;;;;31.45;19.85;;;205.50;2252.80;;;;;;5033264;28;19905;-82
2022/10/21 06:28:41;;;;;;;27.88;17.10;;;205.60;2252.80;;;;;;5022928;28;20026;-78
2022/10/21 06:31:11;;;;;;;26.77;14.13;;;205.70;2252.80;;;;;;5018995;28;20037;-85
2022/10/21 06:33:36;;;;;;;21.73;13.07;;;230.40;2252.80;;;;;;5007060;28;20494;-84
2022/10/21 06:36:02;;;;;;;24.10;11.23;;;230.50;2252.80;;;;;;5004599;28;20033;-82
2022/10/21 06:38:28;;;;;;;;;;;230.50;2252.80;;;;;;5028111;28;20036;-89
2022/10/21 06:41:03;;;;;;;17.52;8.43;;;230.50;2252.80;;;;;;5005515;28;19906;-84
2022/10/21 06:43:29;;;;;;;20.08;10.32;;;230.60;2252.80;;;;;;5017716;28;20482;-86
2022/10/21 06:46:04;;;;;;;17.73;8.70;;;230.70;2252.80;;;;;;5025737;28;20045;-89
2022/10/21 06:48:31;;;;;;;18.75;8.63;;;230.70;2252.80;;;;;;5016252;28;20064;-87
2022/10/21 06:51:05;;;;;;;21.35;8.60;;;230.90;2252.80;;;;;;5016194;28;20037;-84
2022/10/21 06:53:32;;;;;;;22.02;8.85;;;230.90;2252.80;;;;;;5016096;28;20041;-84
2022/10/21 06:56:08;;;;;;;18.92;8.75;;;231.10;2252.80;;;;;;5023600;28;20039;-88
2022/10/21 06:58:36;;;;;;;26.48;8.40;;;231.20;2252.80;;;;;;5036150;28;20029;-86
2022/10/21 07:01:07;;;;;;;13.80;8.70;;;231.30;2252.80;;;;;;5021983;28;20025;-87
2022/10/21 07:03:33;;;;;;;16.50;9.52;;;256.10;2252.80;;;;;;5035928;28;20471;-86
2022/10/21 07:05:59;;;;;;;14.45;8.23;;;256.20;2252.80;;;;;;5034474;28;20036;-84
2022/10/21 07:08:29;;;;;;;15.27;8.77;;;256.30;2252.80;;;;;;5027225;28;20406;-81
2022/10/21 07:10:55;;;;;;;21.05;7.80;;;256.50;2252.80;;;;;;5028419;28;20491;-82
2022/10/21 07:13:21;;;;;;;17.60;8.13;;;256.70;2252.80;;;;;;5021938;28;20068;-76
2022/10/21 07:15:56;;;;;;;16.20;7.32;;;256.80;2252.80;;;;;;5052158;28;20116;-75
2022/10/21 07:18:21;;;;;;;16.42;7.45;;;256.90;2252.80;;;;;;5034207;28;20025;-82
2022/10/21 07:20:47;;;;;;;16.05;7.85;;;281.60;2278.40;;;;;;5033864;28;20036;-75
2022/10/21 07:23:13;;;;;;;;;;;281.80;2278.40;;;;;;5052525;28;20044;-82
2022/10/21 07:25:38;;;;;;;16.98;8.43;;;282.00;2278.40;;;;;;5052481;28;19928;-77
2022/10/21 07:28:04;;;;;;;19.02;7.30;;;282.10;2278.40;;;;;;5034274;28;20044;-84
2022/10/21 07:30:30;;;;;;;21.27;8.73;;;282.20;2278.40;;;;;;5052076;28;20021;-84
2022/10/21 07:32:56;;;;;;;14.23;7.70;;;282.40;2278.40;;;;;;5033923;28;20056;-76
2022/10/21 07:35:22;;;;;;;;;;;282.50;2278.40;;;;;;5052884;28;20040;-80
2022/10/21 07:37:47;;;;;;;16.98;6.82;;;307.20;2304.00;;;;;;5052186;28;19920;-77
2022/10/21 07:40:13;;;;;;;14.40;7.28;;;307.30;2304.00;;;;;;5034625;28;20025;-80
2022/10/21 07:42:39;;;;;;;14.57;6.50;;;307.40;2304.00;;;;;;5052104;28;20087;-76
2022/10/21 07:45:05;;;;;;;15.80;7.85;;;307.40;2304.00;;;;;;5051808;28;20132;-80
2022/10/21 07:47:31;;;;;;;18.02;8.10;;;307.50;2304.00;;;;;;5033187;28;20048;-81
2022/10/21 07:49:56;;;;;;;19.75;9.15;;;307.70;2304.00;;;;;;5034025;28;20025;-77
2022/10/21 07:52:22;;;;;;;19.95;12.65;;;307.70;2304.00;;;;;;5031031;28;20068;-80
2022/10/21 07:54:48;;;;;;;;;;;307.80;2304.00;;;;;;5023306;28;20017;-77
2022/10/21 07:57:13;;;;;;;19.80;12.73;;;307.80;2304.00;;;;;;5034082;28;20277;-76
2022/10/21 07:59:39;;;;;;;;;;;307.80;2304.00;;;;;;5034220;28;20029;-74
2022/10/21 08:02:05;;;;;;;38.47;15.27;;;308.00;2304.00;;;;;;5038834;28;19905;-79
2022/10/21 08:04:32;;;;;;;28.70;16.60;;;308.00;2304.00;;;;;;5001735;28;20030;-75
2022/10/21 08:06:58;;;;;;;27.30;16.40;;;332.80;2329.60;;;;;;5016983;28;20052;-78
2022/10/21 08:09:25;;;;;;;36.05;17.90;;;332.90;2329.60;;;;;;5016833;28;20026;-75
2022/10/21 08:11:51;;;;;;;28.05;14.93;;;333.00;2329.60;;;;;;5011765;28;20022;-83
2022/10/21 08:14:17;;;;;;;23.35;13.38;;;333.00;2329.60;;;;;;4994181;28;20084;-75
2022/10/21 08:16:43;;;;;;;23.23;12.50;;;333.20;2329.60;;;;;;5024292;28;20391;-83
2022/10/21 08:19:16;;;;;;;25.90;10.35;;;333.20;2329.60;;;;;;5046957;28;20018;-80
2022/10/21 08:21:42;;;;;;;27.98;12.52;;;333.30;2329.60;;;;;;5049660;28;20151;-82
2022/10/21 08:24:08;;;;;;;22.75;11.38;;;333.40;2329.60;;;;;;5034592;28;20481;-78
2022/10/21 08:26:33;;;;;;;16.48;9.13;;;333.40;2329.60;;;;;;5017740;28;20072;-77
2022/10/21 08:29:02;;;;;;;20.40;11.13;;;333.40;2329.60;;;;;;5017932;28;20033;-79
2022/10/21 08:31:28;;;;;;;22.15;10.23;;;333.40;2329.60;;;;;;5048603;28;20021;-74
2022/10/21 08:33:54;;;;;;;29.17;11.95;;;333.50;2329.60;;;;;;5032266;28;20383;-77
2022/10/21 08:36:23;;;;;;;20.00;11.95;;;333.50;2329.60;;;;;;5017283;28;20018;-77
2022/10/21 08:38:49;;;;;;;19.70;11.13;;;333.50;2329.60;;;;;;5020472;28;20104;-82
2022/10/21 08:41:20;;;;;;;39.63;11.63;;;333.50;2329.60;;;;;;5024863;28;20057;-82
2022/10/21 08:43:46;;;;;;;23.30;11.25;;;333.70;2329.60;;;;;;5025000;28;20483;-81
2022/10/21 08:46:23;;;;;;;20.63;10.27;;;358.40;2329.60;;;;;;5007639;28;20056;-79
2022/10/21 08:49:12;;;;;;;32.00;11.35;;;358.50;2329.60;;;;;;5014747;28;20125;-82
2022/10/21 08:51:56;;;;;;;19.23;8.70;;;358.70;2329.60;;;;;;5037016;28;20407;-78
2022/10/21 08:54:38;;;;;;;15.85;7.97;;;358.90;2227.20;;;;;;5010599;28;20065;-84
2022/10/21 08:57:04;;;;;;;19.92;7.38;;;359.00;2124.80;;;;;;5021612;28;20026;-79
2022/10/21 08:59:29;;;;;;;19.17;7.32;;;359.10;2176.00;;;;;;5005538;28;20376;-82
2022/10/21 09:02:11;;;;;;;14.13;7.40;;;359.20;2073.60;;;;;;5007857;28;20040;-80
2022/10/21 09:05:09;;;;;;;23.13;8.20;;;359.30;2073.60;;;;;;5023094;28;20018;-80
2022/10/21 09:07:59;;;;;;;13.57;6.75;;;359.30;2048.00;;;;;;5009245;28;20156;-78
2022/10/21 09:10:45;;;;;;;20.38;7.65;;;384.40;2048.00;;;;;;5023644;28;20171;-85
2022/10/21 09:13:39;;;;;;;11.53;5.90;;;384.50;1971.20;;;;;;5036110;28;20041;-85
2022/10/21 09:16:14;;;;;;;14.98;6.20;;;384.60;1971.20;;;;;;5026197;28;20038;-83
2022/10/21 09:19:07;;;;;;;13.48;5.70;;;384.60;1945.60;;;;;;5021573;28;20438;-88
2022/10/21 09:21:50;;;;;;;14.00;6.30;;;384.70;1971.20;;;;;;5022183;28;20050;-85
2022/10/21 09:24:25;;;;;;;29.70;6.07;;;384.70;1920.00;;;;;;5013107;28;20049;-86
2022/10/21 09:26:52;;;;;;;10.60;5.50;;;384.70;1894.40;;;;;;5009510;28;20021;-89
2022/10/21 09:29:36;;;;;;;14.00;6.60;;;384.90;1894.40;;;;;;5022939;28;20032;-83
2022/10/21 09:32:15;;;;;;;17.00;5.85;;;409.80;1920.00;;;;;;5028359;28;20038;-81
2022/10/21 09:35:06;;;;;;;24.50;7.35;;;410.00;1894.40;;;;;;5023429;28;20021;-83
2022/10/21 09:37:40;;;;;;;15.23;6.13;;;410.00;1843.20;;;;;;5035124;28;20078;-84
2022/10/21 09:40:23;;;;;;;14.82;4.78;;;410.20;1817.60;;;;;;5054647;28;20059;-84
2022/10/21 09:42:54;;;;;;;18.52;5.80;;;410.30;1817.60;;;;;;5036995;28;20079;-82
2022/10/21 09:45:31;;;;;;;14.55;5.65;;;410.40;1792.00;;;;;;5036805;28;20056;-84
2022/10/21 09:48:03;;;;;;;12.38;5.53;;;410.50;1792.00;;;;;;5030543;28;20033;-82
2022/10/21 09:50:30;;;;;;;11.30;5.03;;;435.30;1766.40;;;;;;5029621;28;20033;-83
2022/10/21 09:53:06;;;;;;;16.80;6.10;;;435.20;1715.20;;;;;;5016811;28;20087;-83
2022/10/21 09:55:32;;;;;;;12.38;5.75;;;435.20;1715.20;;;;;;5049766;28;20013;-86
2022/10/21 09:58:00;;;;;;;22.00;6.25;;;435.40;1740.80;;;;;;5036314;28;20037;-83
2022/10/21 10:00:47;;;;;;;18.33;5.20;;;435.60;1715.20;;;;;;5036130;28;20076;-83
2022/10/21 10:03:33;;;;;;;12.68;5.57;;;435.60;1664.00;;;;;;5028150;28;20057;-82
2022/10/21 10:06:00;;;;;;;15.45;5.53;;;435.70;1689.60;;;;;;5019847;28;20037;-91
2022/10/21 10:08:40;;;;;;;16.52;6.50;;;436.00;1715.20;;;;;;5036402;28;20061;-80
2022/10/21 10:11:09;;;;;;;21.63;6.88;;;436.10;1689.60;;;;;;5033129;28;20025;-83
2022/10/21 10:13:37;;;;;;;12.05;5.63;;;436.00;1664.00;;;;;;5026074;28;20037;-82
2022/10/21 10:16:17;;;;;;;14.77;6.25;;;436.10;1664.00;;;;;;5035679;28;20040;-82
2022/10/21 10:18:44;;;;;;;13.27;5.72;;;460.80;1689.60;;;;;;5036230;28;20394;-83
2022/10/21 10:21:12;;;;;;;18.92;6.05;;;461.10;1664.00;;;;;;5021247;28;20574;-82
2022/10/21 10:23:56;;;;;;;24.60;6.93;;;461.00;1638.40;;;;;;5026427;28;20028;-86
2022/10/21 10:26:29;;;;;;;12.88;5.07;;;461.10;1664.00;;;;;;5010133;28;20490;-80
2022/10/21 10:29:24;;;;;;;11.18;4.93;;;461.10;1638.40;;;;;;5022667;28;20053;-81
2022/10/21 10:31:54;;;;;;;11.88;5.63;;;461.30;1638.40;;;;;;4995833;28;20041;-82
2022/10/21 10:34:29;;;;;;;15.27;7.03;;;461.20;1638.40;;;;;;5035714;28;20493;-81
2022/10/21 10:37:03;;;;;;;14.87;6.40;;;461.30;1638.40;;;;;;5035518;28;20016;-80
2022/10/21 10:39:32;;;;;;;17.52;5.97;;;461.70;1612.80;;;;;;5028625;28;20030;-83
2022/10/21 10:42:00;;;;;;;17.98;7.00;;;461.50;1612.80;;;;;;5015310;28;20492;-85
2022/10/21 10:44:38;;;;;;;13.95;6.82;;;461.70;1612.80;;;;;;5008645;28;20071;-83
2022/10/21 10:47:10;;;;;;;16.27;5.38;;;461.60;1612.80;;;;;;5035386;28;20055;-83
2022/10/21 10:49:40;;;;;;;16.65;6.25;;;486.40;1612.80;;;;;;5052976;28;20029;-84
2022/10/21 10:52:19;;;;;;;11.98;6.13;;;486.40;1587.20;;;;;;5052543;28;20044;-80
2022/10/21 10:54:46;;;;;;;16.17;5.95;;;486.40;1587.20;;;;;;5024393;28;20056;-82
2022/10/21 10:57:17;;;;;;;16.70;6.25;;;486.50;1561.60;;;;;;5019367;28;20252;-82
2022/10/21 10:59:42;;;;;;;15.95;6.22;;;486.50;1561.60;;;;;;5006460;28;20021;-83
2022/10/21 11:02:08;;;;;;;12.77;6.28;;;486.70;1587.20;;;;;;5022017;28;20030;-81
2022/10/21 11:05:05;;;;;;;23.40;6.95;;;486.80;1561.60;;;;;;5020145;28;20475;-81
2022/10/21 11:07:32;;;;;;;16.48;6.70;;;486.80;1536.00;;;;;;5010145;28;20075;-82
2022/10/21 11:10:23;;;;;;;18.15;6.78;;;486.80;1536.00;;;;;;5030366;28;20051;-81
2022/10/21 11:12:48;;;;;;;22.33;6.65;;;487.10;1536.00;;;;;;5028229;28;20075;-83
2022/10/21 11:15:15;;;;;;;17.55;5.35;;;487.20;1561.60;;;;;;5019208;28;20049;-84
2022/10/21 11:17:48;;;;;;;13.27;6.40;;;487.10;1536.00;;;;;;5027321;28;20021;-83
2022/10/21 11:20:22;;;;;;;11.57;5.82;;;487.00;1536.00;;;;;;5000990;28;20025;-83
2022/10/21 11:23:40;;;;;;;20.02;7.63;;;487.00;1536.00;;;;;;5000933;28;20076;-82
2022/10/21 11:26:27;;;;;;;11.30;6.32;;;486.90;1536.00;;;;;;4995547;28;20255;-80
2022/10/21 11:29:38;;;;;;;12.55;6.00;;;486.90;1561.60;;;;;;5014484;28;20026;-82
2022/10/21 11:32:07;;;;;;;15.60;6.95;;;487.10;1561.60;;;;;;4916784;29;20070;-81
2022/10/21 11:35:12;;;;;;;13.50;6.28;;;487.20;1536.00;;;;;;4916635;29;20015;-80
2022/10/21 11:37:46;;;;;;;11.50;6.78;;;512.00;1536.00;;;;;;4932908;29;20587;-80
2022/10/21 11:40:20;;;;;;;18.05;6.65;;;512.10;1510.40;;;;;;4914329;29;20032;-81
2022/10/21 11:42:50;;;;;;;13.63;6.80;;;512.10;1484.80;;;;;;4914421;29;20043;-81
2022/10/21 11:45:54;;;;;;;13.65;6.35;;;487.30;1484.80;;;;;;4916977;29;20067;-84
2022/10/21 11:48:40;;;;;;;16.55;8.48;;;512.10;1510.40;;;;;;4879979;29;20044;-82
2022/10/21 11:51:21;;;;;;;13.15;6.20;;;512.20;1510.40;;;;;;4879697;29;20045;-86
2022/10/21 11:54:14;;;;;;;11.27;6.20;;;512.00;1510.40;;;;;;4891366;29;20075;-81
2022/10/21 11:56:59;;;;;;;12.13;6.28;;;487.30;1510.40;;;;;;4883567;29;20029;-83
2022/10/21 11:59:42;;;;;;;11.27;5.25;;;512.00;1536.00;;;;;;4883334;29;20108;-82
2022/10/21 12:02:23;;;;;;;12.70;6.53;;;487.30;1536.00;;;;;;4882866;29;20028;-83
2022/10/21 12:04:49;;;;;;;16.10;6.60;;;487.30;1510.40;;;;;;4889519;29;20043;-82
2022/10/21 12:07:41;;;;;;;24.27;6.85;;;487.30;1536.00;;;;;;4890114;28;20028;-82
2022/10/21 12:10:10;;;;;;;14.93;7.05;;;512.00;1536.00;;;;;;4975066;28;20035;-84
2022/10/21 12:12:39;;;;;;;15.52;6.93;;;487.30;1536.00;;;;;;4970014;28;20038;-82
2022/10/21 12:15:32;;;;;;;14.52;6.57;;;487.30;1536.00;;;;;;4984446;28;20122;-83
2022/10/21 12:18:00;;;;;;;11.13;6.00;;;487.30;1510.40;;;;;;4964642;28;20030;-83
2022/10/21 12:20:26;;;;;;;10.50;5.95;;;487.10;1536.00;;;;;;4987715;28;20100;-84
2022/10/21 12:22:59;;;;;;;11.98;6.03;;;487.10;1561.60;;;;;;5014721;28;20101;-82
2022/10/21 12:25:41;;;;;;;12.10;6.22;;;487.20;1561.60;;;;;;5032222;28;20033;-82
2022/10/21 12:28:36;;;;;;;15.10;6.85;;;;;;;;;;5037876;28;20479;-85
2022/10/21 12:31:26;;;;;;;21.88;7.75;;;512.30;1536.00;;;;;;4928148;29;20042;-82
2022/10/21 12:33:53;;;;;;;10.40;6.38;;;512.20;1510.40;;;;;;4941570;29;20107;-83
2022/10/21 12:36:22;;;;;;;14.35;6.28;;;512.20;1510.40;;;;;;4921129;29;20036;-81
2022/10/21 12:38:52;;;;;;;13.77;7.57;;;512.30;1510.40;;;;;;4936473;29;20024;-82
2022/10/21 12:41:23;;;;;;;13.02;6.55;;;512.40;1536.00;;;;;;4950147;28;20426;-84